Accueil
METAR-TAF:

METAR-TAF

Aéroports :

Ingolstadt, Allemagne

latitude: 48-43N, longitude: 011-32E, altitude: 367 m

Observation

Le bulletin a été fait il y a 31 minutes, à 07:20 UTC
Vent 1 kt de nord
Température 0°C
Humidité 74%
Pression 1034 hPa
Visibilité 10 km ou plus
Quelques nuages à une hauteur de 5000 ft

METAR: ETSI 200720Z 36001KT 9999 FEW050 M00/M04 Q1034 BLU+BLU+

Heure: 08:51 (07:51 UTC)

Prévision

Le bulletin a été fait il y a 2 heures et 36 minutes, à 05:15 UTC
Prévision valable du 20 à 06 UTC au 20 à 15 UTC
Vent 5 kt de est/nord-est
Visibilité 10 km ou plus
Quelques nuages à une hauteur de 5000 ft
Temporairement
du 20 à 06 UTC au 20 à 08 UTC
Vent 2 kt de direction variable
Visibilité: 5000 m
Quelques nuages à une hauteur de 5000 ft
Brouillard mince

TAF: ETSI 200515Z 2006/2015 07005KT 9999 NSW FEW050 TEMPO 2006/2008 VRB02KT 5000 MIFG FEW050

Observations et prévisions météorologiques de plus de 4000 aéroports (messages METAR et TAF).

Les stations disponibles sont représentées par des disques jaunes et rouges sur la carte.

Passer la souris dessus pour voir le nom de la station.

Cliquer dessus pour voir les observations et prévisions météorologiques.

Pour changer de carte: cliquez sur les boutons verts avec une croix noire pour zoomer, sur le bouton vert avec un tiret pour effectuer un zoom arrière, ou sur les flèches vertes pour les cartes adjacentes.


METAR-TAF: